sensor_id;sensor_type;location;lat;lon;timestamp;pressure;altitude;pressure_sealevel;temperature;humidity
56668;BME280;42542;48.360;10.958;2023-02-02T00:02:44;96563.06;;;3.99;77.03
56668;BME280;42542;48.360;10.958;2023-02-02T00:05:47;96574.41;;;4.01;76.83
56668;BME280;42542;48.360;10.958;2023-02-02T00:08:49;96577.03;;;4.01;77.59
56668;BME280;42542;48.360;10.958;2023-02-02T00:11:51;96570.16;;;3.98;77.40
56668;BME280;42542;48.360;10.958;2023-02-02T00:14:52;96575.44;;;3.98;77.44
56668;BME280;42542;48.360;10.958;2023-02-02T00:17:54;96564.28;;;3.95;77.69
56668;BME280;42542;48.360;10.958;2023-02-02T00:20:56;96576.66;;;3.94;77.83
56668;BME280;42542;48.360;10.958;2023-02-02T00:23:57;96567.13;;;3.91;77.75
56668;BME280;42542;48.360;10.958;2023-02-02T00:26:59;96548.13;;;3.86;78.17
56668;BME280;42542;48.360;10.958;2023-02-02T00:30:01;96571.81;;;3.88;78.69
56668;BME280;42542;48.360;10.958;2023-02-02T00:33:02;96557.75;;;3.87;79.07
56668;BME280;42542;48.360;10.958;2023-02-02T00:36:04;96550.75;;;3.86;79.20
56668;BME280;42542;48.360;10.958;2023-02-02T00:39:06;96550.97;;;3.83;79.21
56668;BME280;42542;48.360;10.958;2023-02-02T00:42:10;96546.88;;;3.79;79.32
56668;BME280;42542;48.360;10.958;2023-02-02T00:45:12;96538.09;;;3.79;79.93
56668;BME280;42542;48.360;10.958;2023-02-02T00:48:18;96542.06;;;3.73;79.05
56668;BME280;42542;48.360;10.958;2023-02-02T00:51:20;96545.19;;;3.78;79.33
56668;BME280;42542;48.360;10.958;2023-02-02T00:54:22;96546.03;;;3.79;80.04
56668;BME280;42542;48.360;10.958;2023-02-02T00:57:23;96559.25;;;3.79;80.19
56668;BME280;42542;48.360;10.958;2023-02-02T01:00:27;96557.66;;;3.76;79.89
56668;BME280;42542;48.360;10.958;2023-02-02T01:03:28;96557.66;;;3.76;79.57
56668;BME280;42542;48.360;10.958;2023-02-02T01:06:30;96548.91;;;3.76;79.35
56668;BME280;42542;48.360;10.958;2023-02-02T01:09:31;96540.47;;;3.71;80.02
56668;BME280;42542;48.360;10.958;2023-02-02T01:12:33;96557.06;;;3.73;80.30
56668;BME280;42542;48.360;10.958;2023-02-02T01:15:36;96551.78;;;3.73;79.54
56668;BME280;42542;48.360;10.958;2023-02-02T01:18:38;96543.09;;;3.71;79.60
56668;BME280;42542;48.360;10.958;2023-02-02T01:21:41;96533.38;;;3.71;79.62
56668;BME280;42542;48.360;10.958;2023-02-02T01:24:42;96545.53;;;3.74;79.85
56668;BME280;42542;48.360;10.958;2023-02-02T01:27:44;96540.25;;;3.74;79.66
56668;BME280;42542;48.360;10.958;2023-02-02T01:30:46;96550.69;;;3.75;79.13
56668;BME280;42542;48.360;10.958;2023-02-02T01:33:49;96545.41;;;3.75;79.08
56668;BME280;42542;48.360;10.958;2023-02-02T01:36:51;96554.19;;;3.76;78.94
56668;BME280;42542;48.360;10.958;2023-02-02T01:39:53;96553.22;;;3.77;78.95
56668;BME280;42542;48.360;10.958;2023-02-02T01:42:55;96549.63;;;3.78;78.89
56668;BME280;42542;48.360;10.958;2023-02-02T01:45:57;96545.28;;;3.77;78.88
56668;BME280;42542;48.360;10.958;2023-02-02T01:49:09;96543.41;;;3.79;79.01
56668;BME280;42542;48.360;10.958;2023-02-02T01:52:14;96541.81;;;3.76;79.41
56668;BME280;42542;48.360;10.958;2023-02-02T01:55:19;96545.19;;;3.78;78.97
56668;BME280;42542;48.360;10.958;2023-02-02T01:58:32;96541.69;;;3.78;79.47
56668;BME280;42542;48.360;10.958;2023-02-02T02:01:35;96537.25;;;3.78;79.92
56668;BME280;42542;48.360;10.958;2023-02-02T02:04:37;96515.16;;;3.79;79.52
56668;BME280;42542;48.360;10.958;2023-02-02T02:07:42;96532.19;;;3.75;79.83
56668;BME280;42542;48.360;10.958;2023-02-02T02:10:44;96535.47;;;3.79;80.16
56668;BME280;42542;48.360;10.958;2023-02-02T02:13:46;96530.28;;;3.77;79.89
56668;BME280;42542;48.360;10.958;2023-02-02T02:17:20;96527.88;;;3.74;79.75
56668;BME280;42542;48.360;10.958;2023-02-02T02:24:37;96544.56;;;3.75;80.67
56668;BME280;42542;48.360;10.958;2023-02-02T02:38:10;96528.84;;;3.73;81.42
56668;BME280;42542;48.360;10.958;2023-02-02T02:41:25;96528.94;;;3.72;81.19
56668;BME280;42542;48.360;10.958;2023-02-02T02:44:30;96538.56;;;3.73;81.05
56668;BME280;42542;48.360;10.958;2023-02-02T02:47:33;96538.78;;;3.70;80.84
56668;BME280;42542;48.360;10.958;2023-02-02T02:50:37;96538.66;;;3.71;82.48
56668;BME280;42542;48.360;10.958;2023-02-02T02:53:39;96535.28;;;3.69;82.15
56668;BME280;42542;48.360;10.958;2023-02-02T03:03:32;96526.97;;;3.63;84.75
56668;BME280;42542;48.360;10.958;2023-02-02T03:07:05;96516.63;;;3.60;85.22
56668;BME280;42542;48.360;10.958;2023-02-02T03:10:06;96516.09;;;3.54;85.50
56668;BME280;42542;48.360;10.958;2023-02-02T03:13:11;96539.38;;;3.49;86.16
56668;BME280;42542;48.360;10.958;2023-02-02T03:16:14;96531.47;;;3.49;85.43
56668;BME280;42542;48.360;10.958;2023-02-02T03:19:16;96538.97;;;3.43;86.01
56668;BME280;42542;48.360;10.958;2023-02-02T03:22:18;96527.38;;;3.45;86.20
56668;BME280;42542;48.360;10.958;2023-02-02T03:25:20;96522.06;;;3.45;86.26
56668;BME280;42542;48.360;10.958;2023-02-02T03:28:22;96538.75;;;3.46;86.43
56668;BME280;42542;48.360;10.958;2023-02-02T03:31:25;96521.94;;;3.47;86.39
56668;BME280;42542;48.360;10.958;2023-02-02T03:34:27;96509.56;;;3.47;86.21
56668;BME280;42542;48.360;10.958;2023-02-02T03:37:29;96511.72;;;3.42;86.44
56668;BME280;42542;48.360;10.958;2023-02-02T03:40:30;96516.53;;;3.48;87.23
56668;BME280;42542;48.360;10.958;2023-02-02T03:43:32;96517.59;;;3.46;86.50
56668;BME280;42542;48.360;10.958;2023-02-02T03:46:33;96512.47;;;3.44;86.18
56668;BME280;42542;48.360;10.958;2023-02-02T03:49:35;96515.31;;;3.41;86.76
56668;BME280;42542;48.360;10.958;2023-02-02T03:52:37;96508.97;;;3.44;86.30
56668;BME280;42542;48.360;10.958;2023-02-02T03:55:38;96517.84;;;3.43;86.32
56668;BME280;42542;48.360;10.958;2023-02-02T03:58:41;96526.91;;;3.51;86.86
56668;BME280;42542;48.360;10.958;2023-02-02T04:01:43;96514.53;;;3.52;86.50
56668;BME280;42542;48.360;10.958;2023-02-02T04:04:45;96524.47;;;3.48;87.25
56668;BME280;42542;48.360;10.958;2023-02-02T04:07:46;96530.81;;;3.46;87.47
56668;BME280;42542;48.360;10.958;2023-02-02T04:10:49;96528.81;;;3.49;87.69
56668;BME280;42542;48.360;10.958;2023-02-02T04:13:51;96541.06;;;3.50;86.96
56668;BME280;42542;48.360;10.958;2023-02-02T04:16:52;96529.66;;;3.50;86.83
56668;BME280;42542;48.360;10.958;2023-02-02T04:19:54;96547.22;;;3.51;85.95
56668;BME280;42542;48.360;10.958;2023-02-02T04:22:58;96536.53;;;3.52;86.54
56668;BME280;42542;48.360;10.958;2023-02-02T04:26:00;96535.56;;;3.53;85.61
56668;BME280;42542;48.360;10.958;2023-02-02T04:29:01;96548.56;;;3.57;85.75
56668;BME280;42542;48.360;10.958;2023-02-02T04:32:03;96548.44;;;3.58;86.35
56668;BME280;42542;48.360;10.958;2023-02-02T04:35:05;96547.72;;;3.56;86.15
56668;BME280;42542;48.360;10.958;2023-02-02T04:38:07;96542.31;;;3.58;87.26
56668;BME280;42542;48.360;10.958;2023-02-02T04:41:10;96546.75;;;3.57;87.76
56668;BME280;42542;48.360;10.958;2023-02-02T04:44:15;96546.66;;;3.59;87.56
56668;BME280;42542;48.360;10.958;2023-02-02T04:47:17;96553.09;;;3.54;86.49
56668;BME280;42542;48.360;10.958;2023-02-02T04:50:18;96580.63;;;3.52;86.97
56668;BME280;42542;48.360;10.958;2023-02-02T04:53:20;96569.59;;;3.58;86.78
56668;BME280;42542;48.360;10.958;2023-02-02T04:56:21;96570.34;;;3.60;86.83
56668;BME280;42542;48.360;10.958;2023-02-02T04:59:23;96573.19;;;3.57;86.71
56668;BME280;42542;48.360;10.958;2023-02-02T05:02:25;96575.72;;;3.59;87.09
56668;BME280;42542;48.360;10.958;2023-02-02T05:05:26;96572.84;;;3.62;87.59
56668;BME280;42542;48.360;10.958;2023-02-02T05:08:28;96573.69;;;3.62;87.04
56668;BME280;42542;48.360;10.958;2023-02-02T05:11:30;96566.94;;;3.58;87.03
56668;BME280;42542;48.360;10.958;2023-02-02T05:14:31;96577.19;;;3.63;87.23
56668;BME280;42542;48.360;10.958;2023-02-02T05:17:33;96569.25;;;3.63;86.39
56668;BME280;42542;48.360;10.958;2023-02-02T05:20:34;96557.63;;;3.65;86.87
56668;BME280;42542;48.360;10.958;2023-02-02T05:23:36;96556.53;;;3.68;86.61
56668;BME280;42542;48.360;10.958;2023-02-02T05:26:37;96561.72;;;3.69;86.59
56668;BME280;42542;48.360;10.958;2023-02-02T05:29:39;96574.94;;;3.69;85.75
56668;BME280;42542;48.360;10.958;2023-02-02T05:32:41;96585.31;;;3.72;86.11
56668;BME280;42542;48.360;10.958;2023-02-02T05:35:44;96580.88;;;3.73;85.86
56668;BME280;42542;48.360;10.958;2023-02-02T05:38:46;96573.63;;;3.75;85.81
56668;BME280;42542;48.360;10.958;2023-02-02T05:41:47;96571.75;;;3.77;86.15
56668;BME280;42542;48.360;10.958;2023-02-02T05:44:49;96575.88;;;3.81;85.49
56668;BME280;42542;48.360;10.958;2023-02-02T05:47:53;96574.06;;;3.81;85.83
56668;BME280;42542;48.360;10.958;2023-02-02T05:51:01;96582.94;;;3.80;85.23
56668;BME280;42542;48.360;10.958;2023-02-02T05:54:04;96584.66;;;3.81;84.86
56668;BME280;42542;48.360;10.958;2023-02-02T05:57:05;96589.78;;;3.83;85.41
56668;BME280;42542;48.360;10.958;2023-02-02T06:00:07;96576.81;;;3.80;85.20
56668;BME280;42542;48.360;10.958;2023-02-02T06:03:12;96583.91;;;3.79;85.04
56668;BME280;42542;48.360;10.958;2023-02-02T06:06:14;96592.69;;;3.80;85.75
56668;BME280;42542;48.360;10.958;2023-02-02T06:09:15;96597.88;;;3.81;85.94
56668;BME280;42542;48.360;10.958;2023-02-02T06:12:17;96593.28;;;3.83;85.49
56668;BME280;42542;48.360;10.958;2023-02-02T06:15:19;96586.19;;;3.84;85.27
56668;BME280;42542;48.360;10.958;2023-02-02T06:18:20;96584.66;;;3.81;85.86
56668;BME280;42542;48.360;10.958;2023-02-02T06:21:22;96598.91;;;3.79;85.92
56668;BME280;42542;48.360;10.958;2023-02-02T06:24:25;96602.91;;;3.84;86.11
56668;BME280;42542;48.360;10.958;2023-02-02T06:27:26;96610.25;;;3.81;86.10
56668;BME280;42542;48.360;10.958;2023-02-02T06:30:28;96613.84;;;3.80;86.15
56668;BME280;42542;48.360;10.958;2023-02-02T06:33:29;96615.72;;;3.78;87.45
56668;BME280;42542;48.360;10.958;2023-02-02T06:36:31;96625.34;;;3.79;86.66
56668;BME280;42542;48.360;10.958;2023-02-02T06:39:32;96614.59;;;3.69;86.87
56668;BME280;42542;48.360;10.958;2023-02-02T06:42:34;96626.66;;;3.73;87.11
56668;BME280;42542;48.360;10.958;2023-02-02T06:45:36;96627.72;;;3.71;87.59
56668;BME280;42542;48.360;10.958;2023-02-02T06:48:40;96634.19;;;3.67;87.21
56668;BME280;42542;48.360;10.958;2023-02-02T06:51:43;96635.03;;;3.67;86.99
56668;BME280;42542;48.360;10.958;2023-02-02T06:54:44;96642.97;;;3.67;87.33
56668;BME280;42542;48.360;10.958;2023-02-02T06:57:46;96639.22;;;3.70;87.13
56668;BME280;42542;48.360;10.958;2023-02-02T07:00:47;96631.53;;;3.67;87.26
56668;BME280;42542;48.360;10.958;2023-02-02T07:03:49;96648.84;;;3.71;86.57
56668;BME280;42542;48.360;10.958;2023-02-02T07:06:51;96641.97;;;3.68;87.08
56668;BME280;42542;48.360;10.958;2023-02-02T07:09:53;96651.69;;;3.68;86.99
56668;BME280;42542;48.360;10.958;2023-02-02T07:12:58;96638.63;;;3.66;86.94
56668;BME280;42542;48.360;10.958;2023-02-02T07:16:04;96652.69;;;3.67;85.78
56668;BME280;42542;48.360;10.958;2023-02-02T07:19:06;96632.38;;;3.67;86.79
56668;BME280;42542;48.360;10.958;2023-02-02T07:22:08;96649.69;;;3.71;86.52
56668;BME280;42542;48.360;10.958;2023-02-02T07:25:09;96631.19;;;3.71;86.90
56668;BME280;42542;48.360;10.958;2023-02-02T07:28:11;96653.94;;;3.74;86.06
56668;BME280;42542;48.360;10.958;2023-02-02T07:31:17;96633.34;;;3.66;85.57
56668;BME280;42542;48.360;10.958;2023-02-02T07:34:20;96636.28;;;3.74;85.82
56668;BME280;42542;48.360;10.958;2023-02-02T07:37:21;96653.81;;;3.75;85.65
56668;BME280;42542;48.360;10.958;2023-02-02T07:40:23;96641.22;;;3.79;85.79
56668;BME280;42542;48.360;10.958;2023-02-02T07:43:24;96655.06;;;3.82;85.94
56668;BME280;42542;48.360;10.958;2023-02-02T07:46:26;96647.75;;;3.86;85.39
56668;BME280;42542;48.360;10.958;2023-02-02T07:49:28;96642.38;;;3.87;85.30
56668;BME280;42542;48.360;10.958;2023-02-02T07:52:29;96642.97;;;3.91;85.69
56668;BME280;42542;48.360;10.958;2023-02-02T07:55:31;96642.38;;;3.87;85.35
56668;BME280;42542;48.360;10.958;2023-02-02T07:58:32;96652.41;;;3.95;85.72
56668;BME280;42542;48.360;10.958;2023-02-02T08:01:34;96655.13;;;3.93;85.58
56668;BME280;42542;48.360;10.958;2023-02-02T08:04:36;96645.16;;;3.97;85.52
56668;BME280;42542;48.360;10.958;2023-02-02T08:07:37;96662.72;;;3.98;85.27
56668;BME280;42542;48.360;10.958;2023-02-02T08:10:39;96658.94;;;4.02;85.44
56668;BME280;42542;48.360;10.958;2023-02-02T08:13:48;96661.69;;;4.01;85.69
56668;BME280;42542;48.360;10.958;2023-02-02T08:16:50;96658.19;;;4.00;86.03
56668;BME280;42542;48.360;10.958;2023-02-02T08:19:52;96685.38;;;4.02;86.30
56668;BME280;42542;48.360;10.958;2023-02-02T08:22:55;96678.50;;;4.00;86.36
56668;BME280;42542;48.360;10.958;2023-02-02T08:26:10;96673.84;;;4.03;86.33
56668;BME280;42542;48.360;10.958;2023-02-02T08:29:12;96694.16;;;4.03;86.48
56668;BME280;42542;48.360;10.958;2023-02-02T08:32:17;96690.28;;;3.96;87.31
56668;BME280;42542;48.360;10.958;2023-02-02T08:35:19;96686.44;;;4.00;87.20
56668;BME280;42542;48.360;10.958;2023-02-02T08:38:22;96688.72;;;4.04;87.37
56668;BME280;42542;48.360;10.958;2023-02-02T08:41:24;96680.69;;;4.06;88.28
56668;BME280;42542;48.360;10.958;2023-02-02T08:44:25;96709.59;;;4.09;87.85
56668;BME280;42542;48.360;10.958;2023-02-02T08:47:47;96697.31;;;4.08;88.06
56668;BME280;42542;48.360;10.958;2023-02-02T08:51:02;96702.50;;;4.09;88.63
56668;BME280;42542;48.360;10.958;2023-02-02T08:54:04;96699.84;;;4.09;88.85
56668;BME280;42542;48.360;10.958;2023-02-02T08:57:06;96710.63;;;4.06;88.63
56668;BME280;42542;48.360;10.958;2023-02-02T09:00:08;96717.72;;;4.06;89.01
56668;BME280;42542;48.360;10.958;2023-02-02T09:03:09;96716.88;;;4.05;89.15
56668;BME280;42542;48.360;10.958;2023-02-02T09:06:14;96717.63;;;4.07;89.72
56668;BME280;42542;48.360;10.958;2023-02-02T09:09:16;96725.56;;;4.07;89.66
56668;BME280;42542;48.360;10.958;2023-02-02T09:12:18;96731.59;;;4.09;89.55
56668;BME280;42542;48.360;10.958;2023-02-02T09:15:19;96728.00;;;4.10;90.50
56668;BME280;42542;48.360;10.958;2023-02-02T09:18:21;96718.38;;;4.09;91.01
56668;BME280;42542;48.360;10.958;2023-02-02T09:21:22;96721.00;;;4.09;91.13
56668;BME280;42542;48.360;10.958;2023-02-02T09:24:24;96714.97;;;4.07;91.12
56668;BME280;42542;48.360;10.958;2023-02-02T09:27:26;96717.72;;;4.06;91.50
56668;BME280;42542;48.360;10.958;2023-02-02T09:30:27;96719.75;;;4.02;91.47
56668;BME280;42542;48.360;10.958;2023-02-02T09:33:29;96731.81;;;4.06;91.22
56668;BME280;42542;48.360;10.958;2023-02-02T09:36:31;96726.41;;;4.08;91.10
56668;BME280;42542;48.360;10.958;2023-02-02T09:39:33;96715.72;;;4.09;91.04
56668;BME280;42542;48.360;10.958;2023-02-02T09:42:53;96729.47;;;4.14;90.84
56668;BME280;42542;48.360;10.958;2023-02-02T09:46:02;96740.66;;;4.18;90.72
56668;BME280;42542;48.360;10.958;2023-02-02T09:49:12;96737.19;;;4.17;89.77
56668;BME280;42542;48.360;10.958;2023-02-02T09:52:39;96729.00;;;4.20;90.06
56668;BME280;42542;48.360;10.958;2023-02-02T09:55:53;96734.81;;;4.25;89.87
56668;BME280;42542;48.360;10.958;2023-02-02T09:58:59;96725.63;;;4.18;89.50
56668;BME280;42542;48.360;10.958;2023-02-02T10:02:36;96755.88;;;4.27;89.68
56668;BME280;42542;48.360;10.958;2023-02-02T10:05:52;96722.09;;;4.30;89.49
56668;BME280;42542;48.360;10.958;2023-02-02T10:09:02;96733.75;;;4.28;88.72
56668;BME280;42542;48.360;10.958;2023-02-02T10:22:02;96755.31;;;4.35;90.53
56668;BME280;42542;48.360;10.958;2023-02-02T10:25:11;96759.47;;;4.39;91.75
56668;BME280;42542;48.360;10.958;2023-02-02T10:28:18;96764.75;;;4.39;91.01
56668;BME280;42542;48.360;10.958;2023-02-02T10:35:02;96758.31;;;4.30;91.67
56668;BME280;42542;48.360;10.958;2023-02-02T10:41:47;96762.41;;;4.34;92.07
56668;BME280;42542;48.360;10.958;2023-02-02T10:45:01;96743.78;;;4.36;92.16
56668;BME280;42542;48.360;10.958;2023-02-02T10:48:19;96749.72;;;4.39;92.11
56668;BME280;42542;48.360;10.958;2023-02-02T10:51:26;96756.81;;;4.39;92.54
56668;BME280;42542;48.360;10.958;2023-02-02T11:01:12;96730.09;;;4.42;93.07
56668;BME280;42542;48.360;10.958;2023-02-02T11:04:20;96751.16;;;4.43;92.76
56668;BME280;42542;48.360;10.958;2023-02-02T11:07:40;96745.97;;;4.42;92.39
56668;BME280;42542;48.360;10.958;2023-02-02T11:10:43;96745.97;;;4.42;92.94
56668;BME280;42542;48.360;10.958;2023-02-02T11:13:55;96742.50;;;4.41;92.22
56668;BME280;42542;48.360;10.958;2023-02-02T11:17:05;96764.50;;;4.42;93.10
56668;BME280;42542;48.360;10.958;2023-02-02T11:20:32;96771.69;;;4.40;92.80
56668;BME280;42542;48.360;10.958;2023-02-02T11:23:34;96763.56;;;4.43;93.37
56668;BME280;42542;48.360;10.958;2023-02-02T11:26:53;96769.06;;;4.40;93.28
56668;BME280;42542;48.360;10.958;2023-02-02T11:29:58;96781.59;;;4.38;93.30
56668;BME280;42542;48.360;10.958;2023-02-02T11:33:19;96774.25;;;4.41;93.37
56668;BME280;42542;48.360;10.958;2023-02-02T11:36:22;96779.53;;;4.41;92.79
56668;BME280;42542;48.360;10.958;2023-02-02T11:39:24;96775.09;;;4.42;93.32
56668;BME280;42542;48.360;10.958;2023-02-02T11:42:26;96759.22;;;4.42;93.53
56668;BME280;42542;48.360;10.958;2023-02-02T11:48:37;96773.41;;;4.41;93.26
56668;BME280;42542;48.360;10.958;2023-02-02T11:51:41;96774.25;;;4.41;92.46
56668;BME280;42542;48.360;10.958;2023-02-02T11:54:46;96755.72;;;4.41;93.02
56668;BME280;42542;48.360;10.958;2023-02-02T11:58:09;96752.13;;;4.42;93.52
56668;BME280;42542;48.360;10.958;2023-02-02T12:01:23;96755.00;;;4.39;93.35
56668;BME280;42542;48.360;10.958;2023-02-02T12:04:26;96769.81;;;4.42;93.35
56668;BME280;42542;48.360;10.958;2023-02-02T12:07:31;96756.47;;;4.43;93.64
56668;BME280;42542;48.360;10.958;2023-02-02T12:10:43;96776.69;;;4.44;93.58
56668;BME280;42542;48.360;10.958;2023-02-02T12:14:04;96756.97;;;4.48;93.63
56668;BME280;42542;48.360;10.958;2023-02-02T12:17:28;96758.75;;;4.48;94.06
56668;BME280;42542;48.360;10.958;2023-02-02T12:20:44;96764.81;;;4.50;94.05
56668;BME280;42542;48.360;10.958;2023-02-02T12:23:54;96763.97;;;4.49;93.92
56668;BME280;42542;48.360;10.958;2023-02-02T12:27:22;96766.84;;;4.46;94.25
56668;BME280;42542;48.360;10.958;2023-02-02T12:30:50;96753.47;;;4.48;94.60
56668;BME280;42542;48.360;10.958;2023-02-02T12:47:04;96752.22;;;4.41;95.22
56668;BME280;42542;48.360;10.958;2023-02-02T12:50:21;96760.16;;;4.41;96.13
56668;BME280;42542;48.360;10.958;2023-02-02T12:57:52;96773.75;;;4.36;95.92
56668;BME280;42542;48.360;10.958;2023-02-02T13:00:58;96752.47;;;4.38;95.54
56668;BME280;42542;48.360;10.958;2023-02-02T13:07:48;96753.63;;;4.33;96.83
56668;BME280;42542;48.360;10.958;2023-02-02T13:11:08;96772.50;;;4.29;96.31
56668;BME280;42542;48.360;10.958;2023-02-02T13:14:34;96778.84;;;4.26;97.22
56668;BME280;42542;48.360;10.958;2023-02-02T13:17:42;96787.63;;;4.27;97.52
56668;BME280;42542;48.360;10.958;2023-02-02T13:20:50;96792.91;;;4.27;97.85
56668;BME280;42542;48.360;10.958;2023-02-02T13:23:59;96785.09;;;4.25;98.02
56668;BME280;42542;48.360;10.958;2023-02-02T13:27:05;96784.38;;;4.23;98.01
56668;BME280;42542;48.360;10.958;2023-02-02T13:30:30;96795.81;;;4.24;97.77
56668;BME280;42542;48.360;10.958;2023-02-02T13:33:35;96797.50;;;4.25;98.30
56668;BME280;42542;48.360;10.958;2023-02-02T13:36:40;96800.34;;;4.22;98.51
56668;BME280;42542;48.360;10.958;2023-02-02T13:40:04;96809.97;;;4.23;98.27
56668;BME280;42542;48.360;10.958;2023-02-02T13:46:41;96808.28;;;4.22;98.78
56668;BME280;42542;48.360;10.958;2023-02-02T13:49:50;96808.78;;;4.27;98.31
56668;BME280;42542;48.360;10.958;2023-02-02T13:53:17;96819.47;;;4.25;97.82
56668;BME280;42542;48.360;10.958;2023-02-02T14:03:26;96819.72;;;4.22;98.33
56668;BME280;42542;48.360;10.958;2023-02-02T14:06:51;96813.78;;;4.19;97.80
56668;BME280;42542;48.360;10.958;2023-02-02T14:09:57;96805.63;;;4.22;98.11
56668;BME280;42542;48.360;10.958;2023-02-02T14:13:12;96817.81;;;4.24;98.53
56668;BME280;42542;48.360;10.958;2023-02-02T14:22:46;96832.00;;;4.23;97.97
56668;BME280;42542;48.360;10.958;2023-02-02T14:26:05;96836.34;;;4.24;98.58
56668;BME280;42542;48.360;10.958;2023-02-02T14:32:40;96839.69;;;4.26;98.49
56668;BME280;42542;48.360;10.958;2023-02-02T14:41:59;96842.47;;;4.25;98.91
56668;BME280;42542;48.360;10.958;2023-02-02T14:45:32;96850.41;;;4.25;99.04
56668;BME280;42542;48.360;10.958;2023-02-02T14:48:35;96844.38;;;4.23;98.96
56668;BME280;42542;48.360;10.958;2023-02-02T14:51:52;96858.75;;;4.19;97.89
56668;BME280;42542;48.360;10.958;2023-02-02T14:54:55;96856.88;;;4.21;98.76
56668;BME280;42542;48.360;10.958;2023-02-02T14:58:01;96862.25;;;4.19;98.63
56668;BME280;42542;48.360;10.958;2023-02-02T15:01:27;96863.09;;;4.20;98.48
56668;BME280;42542;48.360;10.958;2023-02-02T15:04:29;96859.59;;;4.19;98.76
56668;BME280;42542;48.360;10.958;2023-02-02T15:13:58;96861.63;;;4.16;99.58
56668;BME280;42542;48.360;10.958;2023-02-02T15:17:23;96865.44;;;4.12;99.18
56668;BME280;42542;48.360;10.958;2023-02-02T15:20:57;96865.34;;;4.13;99.80
56668;BME280;42542;48.360;10.958;2023-02-02T15:24:02;96864.47;;;4.13;99.40
56668;BME280;42542;48.360;10.958;2023-02-02T15:27:06;96872.84;;;4.07;99.83
56668;BME280;42542;48.360;10.958;2023-02-02T15:30:15;96883.22;;;4.10;99.26
56668;BME280;42542;48.360;10.958;2023-02-02T15:33:28;96873.38;;;4.12;99.42
56668;BME280;42542;48.360;10.958;2023-02-02T15:36:32;96874.44;;;4.09;99.67
56668;BME280;42542;48.360;10.958;2023-02-02T15:39:39;96879.09;;;4.06;99.77
56668;BME280;42542;48.360;10.958;2023-02-02T15:42:44;96890.31;;;4.09;99.43
56668;BME280;42542;48.360;10.958;2023-02-02T15:46:02;96899.09;;;4.10;99.65
56668;BME280;42542;48.360;10.958;2023-02-02T15:52:44;96895.38;;;4.12;99.56
56668;BME280;42542;48.360;10.958;2023-02-02T15:55:48;96913.81;;;4.14;99.14
56668;BME280;42542;48.360;10.958;2023-02-02T15:58:55;96920.78;;;4.15;98.77
56668;BME280;42542;48.360;10.958;2023-02-02T16:02:17;96923.53;;;4.13;98.58
56668;BME280;42542;48.360;10.958;2023-02-02T16:08:37;96928.63;;;4.16;99.09
56668;BME280;42542;48.360;10.958;2023-02-02T16:11:40;96919.09;;;4.14;98.80
56668;BME280;42542;48.360;10.958;2023-02-02T16:14:45;96926.94;;;4.15;98.61
56668;BME280;42542;48.360;10.958;2023-02-02T16:18:05;96940.25;;;4.14;97.81
56668;BME280;42542;48.360;10.958;2023-02-02T16:21:22;96944.50;;;4.16;97.69
56668;BME280;42542;48.360;10.958;2023-02-02T16:24:28;96940.16;;;4.15;97.74
56668;BME280;42542;48.360;10.958;2023-02-02T16:27:30;96951.50;;;4.17;98.22
56668;BME280;42542;48.360;10.958;2023-02-02T16:30:36;96961.09;;;4.18;97.75
56668;BME280;42542;48.360;10.958;2023-02-02T16:33:43;96959.44;;;4.17;97.81
56668;BME280;42542;48.360;10.958;2023-02-02T16:37:16;96967.47;;;4.16;98.31
56668;BME280;42542;48.360;10.958;2023-02-02T16:40:28;96967.38;;;4.17;98.11
56668;BME280;42542;48.360;10.958;2023-02-02T16:43:30;96983.34;;;4.16;97.32
56668;BME280;42542;48.360;10.958;2023-02-02T16:49:43;96979.63;;;4.18;96.69
56668;BME280;42542;48.360;10.958;2023-02-02T16:52:52;96988.31;;;4.20;97.07
56668;BME280;42542;48.360;10.958;2023-02-02T16:55:55;96992.66;;;4.21;96.71
56668;BME280;42542;48.360;10.958;2023-02-02T16:59:04;97004.94;;;4.22;97.12
56668;BME280;42542;48.360;10.958;2023-02-02T17:05:29;97004.00;;;4.23;96.13
56668;BME280;42542;48.360;10.958;2023-02-02T17:08:37;97001.97;;;4.27;96.19
56668;BME280;42542;48.360;10.958;2023-02-02T17:11:53;97012.56;;;4.27;96.29
56668;BME280;42542;48.360;10.958;2023-02-02T17:14:59;97012.47;;;4.28;96.42
56668;BME280;42542;48.360;10.958;2023-02-02T17:18:05;97016.06;;;4.27;95.90
56668;BME280;42542;48.360;10.958;2023-02-02T17:21:12;97014.16;;;4.29;95.91
56668;BME280;42542;48.360;10.958;2023-02-02T17:24:15;97023.81;;;4.30;95.87
56668;BME280;42542;48.360;10.958;2023-02-02T17:27:26;97025.50;;;4.31;95.47
56668;BME280;42542;48.360;10.958;2023-02-02T17:30:29;97038.81;;;4.30;95.37
56668;BME280;42542;48.360;10.958;2023-02-02T17:33:33;97033.44;;;4.31;95.46
56668;BME280;42542;48.360;10.958;2023-02-02T17:36:35;97043.03;;;4.32;95.91
56668;BME280;42542;48.360;10.958;2023-02-02T17:39:37;97036.09;;;4.31;96.00
56668;BME280;42542;48.360;10.958;2023-02-02T17:42:39;97034.47;;;4.29;95.92
56668;BME280;42542;48.360;10.958;2023-02-02T17:45:42;97032.69;;;4.29;95.52
56668;BME280;42542;48.360;10.958;2023-02-02T17:48:47;97045.38;;;4.24;95.85
56668;BME280;42542;48.360;10.958;2023-02-02T17:51:53;97044.13;;;4.30;95.64
56668;BME280;42542;48.360;10.958;2023-02-02T17:55:21;97066.25;;;4.29;95.93
56668;BME280;42542;48.360;10.958;2023-02-02T17:59:02;97071.53;;;4.29;95.87
56668;BME280;42542;48.360;10.958;2023-02-02T18:02:43;97059.75;;;4.20;96.23
56668;BME280;42542;48.360;10.958;2023-02-02T18:05:56;97077.88;;;4.26;95.98
56668;BME280;42542;48.360;10.958;2023-02-02T18:09:11;97057.53;;;4.14;96.36
56668;BME280;42542;48.360;10.958;2023-02-02T18:12:18;97078.72;;;4.27;97.17
56668;BME280;42542;48.360;10.958;2023-02-02T18:15:43;97081.88;;;4.19;97.10
56668;BME280;42542;48.360;10.958;2023-02-02T18:19:04;97093.97;;;4.23;97.57
56668;BME280;42542;48.360;10.958;2023-02-02T18:22:20;97090.47;;;4.23;97.82
56668;BME280;42542;48.360;10.958;2023-02-02T18:25:23;97103.88;;;4.20;98.05